Time;durP1;ratioP1;P1;durP2;ratioP2;P2;SDS_P1;SDS_P2;PMS_P1;PMS_P2;Temp;Humidity;BMP_temperature;BMP_pressure;BME280_temperature;BME280_humidity;BME280_pressure;Samples;Min_cycle;Max_cycle;Signal;HPM_P1;HPM_P2
2022/11/05 00:10:23;;;;;;;4.73;1.90;;;12.10;99.90;;;;;;7395612;19;20142;-74
2022/11/05 00:18:22;;;;;;;1.87;1.67;;;12.10;99.90;;;;;;7397806;19;20138;-74
2022/11/05 00:20:51;;;;;;;1.97;1.50;;;12.00;99.90;;;;;;7394293;19;20260;-74
2022/11/05 00:26:04;;;;;;;2.70;1.93;;;12.20;99.90;;;;;;7395994;19;20146;-75
2022/11/05 00:28:31;;;;;;;2.50;1.87;;;12.10;99.90;;;;;;7395624;19;20145;-75
2022/11/05 00:31:02;;;;;;;2.57;1.63;;;12.10;99.90;;;;;;7394356;19;20146;-75
2022/11/05 00:33:28;;;;;;;3.93;2.40;;;12.20;99.90;;;;;;7396907;19;20158;-74
2022/11/05 00:35:53;;;;;;;5.13;2.07;;;12.20;99.90;;;;;;7396667;19;20509;-75
2022/11/05 00:38:19;;;;;;;2.33;1.80;;;12.20;99.90;;;;;;7391325;19;20231;-75
2022/11/05 00:40:45;;;;;;;3.43;2.07;;;12.20;99.90;;;;;;7391399;19;20154;-76
2022/11/05 00:45:55;;;;;;;3.10;1.80;;;12.20;99.90;;;;;;7394430;19;20142;-75
2022/11/05 00:51:06;;;;;;;3.70;2.00;;;12.20;99.90;;;;;;7386852;19;20150;-75
2022/11/05 00:53:32;;;;;;;2.20;1.57;;;12.30;99.90;;;;;;7384523;19;20599;-75
2022/11/05 00:55:59;;;;;;;2.23;1.67;;;12.30;99.90;;;;;;7384188;19;20260;-74
2022/11/05 00:58:26;;;;;;;5.63;1.53;;;12.30;99.90;;;;;;7383874;19;20209;-75
2022/11/05 01:00:54;;;;;;;1.90;1.30;;;12.20;99.90;;;;;;7384905;19;20921;-75
2022/11/05 01:03:22;;;;;;;3.77;1.53;;;12.10;99.90;;;;;;7383844;19;20560;-75
2022/11/05 01:05:51;;;;;;;1.97;1.50;;;12.00;99.90;;;;;;7384638;19;20178;-73
2022/11/05 01:08:19;;;;;;;4.10;1.27;;;12.10;99.90;;;;;;7385593;19;20135;-75
2022/11/05 01:10:50;;;;;;;1.50;1.40;;;11.90;99.90;;;;;;7377737;19;20143;-76
2022/11/05 01:13:21;;;;;;;2.70;1.17;;;12.00;99.90;;;;;;7384790;19;20138;-75
2022/11/05 01:15:51;;;;;;;1.53;1.40;;;11.90;99.90;;;;;;7384688;19;20135;-75
2022/11/05 01:18:18;;;;;;;1.80;1.40;;;11.80;99.90;;;;;;7380788;19;20151;-76
2022/11/05 01:20:44;;;;;;;1.80;1.50;;;11.90;99.90;;;;;;7383693;19;20588;-74
2022/11/05 01:23:10;;;;;;;2.87;1.60;;;11.90;99.90;;;;;;7381461;19;20149;-75
2022/11/05 01:25:36;;;;;;;3.93;1.43;;;12.00;99.90;;;;;;7382109;19;20608;-75
2022/11/05 01:28:03;;;;;;;2.87;1.10;;;12.00;99.90;;;;;;7388338;19;20135;-75
2022/11/05 01:30:29;;;;;;;2.33;1.30;;;12.10;99.90;;;;;;7382834;19;20490;-74
2022/11/05 01:32:55;;;;;;;1.43;1.20;;;12.20;99.90;;;;;;7386233;19;20139;-74
2022/11/05 01:35:21;;;;;;;2.00;1.10;;;12.10;99.90;;;;;;7386545;19;20534;-76
2022/11/05 01:37:47;;;;;;;1.87;1.17;;;12.20;99.90;;;;;;7380342;19;20131;-76
2022/11/05 01:40:16;;;;;;;1.53;1.27;;;12.10;99.90;;;;;;7378099;19;20143;-74
2022/11/05 01:42:42;;;;;;;1.30;1.00;;;12.10;99.90;;;;;;7382364;19;20150;-75
2022/11/05 01:45:22;;;;;;;1.67;1.00;;;12.10;99.90;;;;;;7379575;19;20572;-75
2022/11/05 01:47:57;;;;;;;1.43;1.20;;;12.10;99.90;;;;;;7381425;19;20169;-74
2022/11/05 01:50:52;;;;;;;1.13;0.93;;;12.10;99.90;;;;;;7381452;19;20158;-75
2022/11/05 01:53:34;;;;;;;2.03;1.20;;;12.10;99.90;;;;;;7384737;19;20150;-74
2022/11/05 01:56:19;;;;;;;1.73;1.00;;;12.20;99.90;;;;;;7389932;19;20142;-76
2022/11/05 01:58:48;;;;;;;1.77;1.20;;;12.20;99.90;;;;;;7384642;19;20134;-75
2022/11/05 02:01:14;;;;;;;1.50;1.20;;;12.20;99.90;;;;;;7380282;19;20143;-74
2022/11/05 02:03:41;;;;;;;2.40;1.20;;;12.20;99.90;;;;;;7382953;19;20177;-74
2022/11/05 02:06:08;;;;;;;1.43;1.03;;;12.20;99.90;;;;;;7380781;19;20143;-74
2022/11/05 02:08:52;;;;;;;1.93;1.30;;;12.20;99.90;;;;;;7382219;19;20170;-73
2022/11/05 02:11:19;;;;;;;1.27;0.97;;;12.10;99.90;;;;;;7381164;19;20223;-74
2022/11/05 02:13:47;;;;;;;2.70;0.93;;;11.90;99.90;;;;;;7384530;19;20139;-74
2022/11/05 02:16:21;;;;;;;1.20;1.10;;;12.00;99.90;;;;;;7388128;19;20141;-74
2022/11/05 02:18:57;;;;;;;1.73;1.00;;;12.00;99.90;;;;;;7388660;19;20581;-75
2022/11/05 02:21:44;;;;;;;2.80;1.10;;;12.10;99.90;;;;;;7392225;19;20588;-75
2022/11/05 02:24:31;;;;;;;1.13;1.03;;;12.10;99.90;;;;;;7394154;19;20142;-75
2022/11/05 02:27:05;;;;;;;1.70;1.07;;;12.10;99.90;;;;;;7385005;19;20147;-74
2022/11/05 02:30:01;;;;;;;1.40;1.20;;;12.10;99.90;;;;;;7388609;19;20170;-75
2022/11/05 02:32:38;;;;;;;3.73;1.07;;;12.10;99.90;;;;;;7390277;19;20199;-74
2022/11/05 02:35:17;;;;;;;2.43;1.57;;;12.10;99.90;;;;;;7388573;19;20662;-73
2022/11/05 02:37:53;;;;;;;1.83;0.93;;;12.10;99.90;;;;;;7388105;19;20149;-75
2022/11/05 02:40:31;;;;;;;1.80;1.30;;;12.10;99.90;;;;;;7387199;19;20159;-76
2022/11/05 02:43:01;;;;;;;1.13;1.00;;;12.10;99.90;;;;;;7390076;19;20150;-74
2022/11/05 02:45:34;;;;;;;1.93;1.00;;;12.10;99.90;;;;;;7390939;19;20154;-75
2022/11/05 02:48:26;;;;;;;3.17;1.00;;;12.00;99.90;;;;;;7398640;19;20202;-74
2022/11/05 02:51:22;;;;;;;1.63;1.20;;;12.10;99.90;;;;;;7393098;19;20500;-73
2022/11/05 02:54:07;;;;;;;1.20;1.10;;;12.10;99.90;;;;;;7390512;19;20153;-75
2022/11/05 02:56:37;;;;;;;2.37;0.97;;;12.10;99.90;;;;;;7391905;19;20533;-74
2022/11/05 02:59:03;;;;;;;1.87;0.70;;;12.10;99.90;;;;;;7395036;19;20159;-74
2022/11/05 03:01:29;;;;;;;0.90;0.90;;;12.00;99.90;;;;;;7394047;19;20139;-75
2022/11/05 03:03:59;;;;;;;1.17;1.03;;;12.30;99.90;;;;;;7384072;19;20206;-74
2022/11/05 03:06:34;;;;;;;1.70;1.20;;;12.20;99.90;;;;;;7385480;19;20143;-75
2022/11/05 03:09:25;;;;;;;1.20;1.10;;;12.20;99.90;;;;;;7391993;19;20130;-76
2022/11/05 03:12:16;;;;;;;1.23;0.93;;;12.10;99.90;;;;;;7389460;19;20138;-75
2022/11/05 03:15:23;;;;;;;1.73;0.83;;;12.20;99.90;;;;;;7388407;19;20242;-75
2022/11/05 03:18:01;;;;;;;1.33;1.23;;;12.20;99.90;;;;;;7386928;19;20170;-74
2022/11/05 03:20:44;;;;;;;1.10;0.90;;;12.20;99.90;;;;;;7387394;19;20595;-75
2022/11/05 03:23:22;;;;;;;0.93;0.80;;;12.20;99.90;;;;;;7388234;19;20153;-74
2022/11/05 03:25:54;;;;;;;0.83;0.80;;;12.10;99.90;;;;;;7386433;19;20613;-75
2022/11/05 03:28:26;;;;;;;0.80;0.80;;;12.00;99.90;;;;;;7386948;19;20642;-75
2022/11/05 03:30:55;;;;;;;2.40;1.10;;;12.00;99.90;;;;;;7384340;19;20139;-75
2022/11/05 03:33:25;;;;;;;2.10;1.00;;;11.90;99.90;;;;;;7390795;19;20239;-74
2022/11/05 03:35:55;;;;;;;1.70;1.10;;;11.90;99.90;;;;;;7392568;19;20573;-75
2022/11/05 03:38:29;;;;;;;1.60;0.97;;;12.00;99.90;;;;;;7396356;19;20130;-75
2022/11/05 03:40:58;;;;;;;1.57;0.80;;;11.90;99.90;;;;;;7394637;19;20154;-75
2022/11/05 03:43:29;;;;;;;1.03;0.83;;;12.10;99.90;;;;;;7399813;19;20130;-86
2022/11/05 03:46:06;;;;;;;1.53;1.07;;;12.10;99.90;;;;;;7391215;19;20259;-74
2022/11/05 03:48:37;;;;;;;1.40;0.95;;;12.10;99.90;;;;;;7394086;19;20265;-75
2022/11/05 03:51:13;;;;;;;2.07;1.00;;;12.10;99.90;;;;;;7392621;19;20140;-74
2022/11/05 03:53:54;;;;;;;3.00;1.00;;;12.10;99.90;;;;;;7395927;19;20487;-75
2022/11/05 03:57:08;;;;;;;3.73;0.73;;;12.20;99.90;;;;;;7391979;19;20142;-73
2022/11/05 03:59:45;;;;;;;1.17;1.07;;;11.90;99.90;;;;;;7385186;19;20171;-73
2022/11/05 04:02:12;;;;;;;2.00;0.83;;;11.90;99.90;;;;;;7392198;19;20135;-75
2022/11/05 04:04:40;;;;;;;1.33;0.83;;;12.00;99.90;;;;;;7392802;19;20701;-75
2022/11/05 04:15:20;;;;;;;1.57;1.10;;;12.10;99.90;;;;;;7384115;19;20157;-75
2022/11/05 04:17:46;;;;;;;2.27;1.40;;;12.10;99.90;;;;;;7384340;19;20127;-75
2022/11/05 04:25:46;;;;;;;1.50;1.20;;;11.90;99.90;;;;;;7391727;19;20145;-75
2022/11/05 04:28:12;;;;;;;1.20;1.00;;;11.90;99.90;;;;;;7397892;19;20131;-75
2022/11/05 04:30:43;;;;;;;1.23;1.10;;;11.80;99.90;;;;;;7394191;19;20130;-74
2022/11/05 04:33:10;;;;;;;2.23;1.20;;;11.80;99.90;;;;;;7398804;19;20138;-76
2022/11/05 04:35:37;;;;;;;1.60;1.50;;;11.80;99.90;;;;;;7396140;19;20167;-74
2022/11/05 04:38:09;;;;;;;2.87;1.37;;;11.50;99.90;;;;;;7398537;19;20139;-74
2022/11/05 04:40:35;;;;;;;2.10;1.40;;;11.70;99.90;;;;;;7396239;19;20151;-76
2022/11/05 04:43:02;;;;;;;1.43;1.17;;;11.70;99.90;;;;;;7395446;19;20134;-76
2022/11/05 04:45:31;;;;;;;1.97;1.40;;;11.80;99.90;;;;;;7393056;19;20174;-75
2022/11/05 04:47:57;;;;;;;1.80;1.10;;;11.90;99.90;;;;;;7392856;19;20138;-76
2022/11/05 04:50:23;;;;;;;2.50;1.40;;;11.90;99.90;;;;;;7392479;19;20134;-76
2022/11/05 04:52:49;;;;;;;1.33;1.23;;;11.90;99.90;;;;;;7393821;19;20134;-74
2022/11/05 04:55:15;;;;;;;1.67;1.20;;;11.90;99.90;;;;;;7391757;19;20218;-76
2022/11/05 04:57:41;;;;;;;1.47;1.33;;;11.90;99.90;;;;;;7386401;19;20514;-75
2022/11/05 05:00:07;;;;;;;2.40;1.67;;;11.90;99.90;;;;;;7389229;19;20127;-73
2022/11/05 05:02:35;;;;;;;1.80;1.40;;;11.80;99.90;;;;;;7389198;19;20556;-76
2022/11/05 05:05:01;;;;;;;1.73;1.33;;;11.60;99.90;;;;;;7391535;19;20194;-76
2022/11/05 05:07:27;;;;;;;2.17;1.30;;;11.70;99.90;;;;;;7387217;19;20620;-76
2022/11/05 05:09:53;;;;;;;2.60;1.13;;;11.80;99.90;;;;;;7390588;19;20150;-76
2022/11/05 05:12:20;;;;;;;1.20;1.07;;;11.90;99.90;;;;;;7387326;19;20138;-75
2022/11/05 05:14:48;;;;;;;1.33;1.20;;;11.80;99.90;;;;;;7391249;19;20206;-76
2022/11/05 05:17:14;;;;;;;2.43;1.20;;;11.70;99.90;;;;;;7391736;19;20487;-75
2022/11/05 05:22:24;;;;;;;1.80;1.20;;;11.80;99.90;;;;;;7389308;19;20142;-76
2022/11/05 05:24:50;;;;;;;2.80;1.10;;;11.90;99.90;;;;;;7383480;19;20146;-75
2022/11/05 05:27:16;;;;;;;1.67;1.20;;;11.90;99.90;;;;;;7382556;19;20472;-77
2022/11/05 05:29:41;;;;;;;1.00;0.90;;;11.90;99.90;;;;;;7383366;19;20134;-76
2022/11/05 05:32:08;;;;;;;1.20;1.10;;;11.90;99.90;;;;;;7382803;19;20606;-75
2022/11/05 05:34:37;;;;;;;1.67;1.10;;;11.90;99.90;;;;;;7380056;19;20902;-76
2022/11/05 05:37:02;;;;;;;1.27;1.10;;;11.90;99.90;;;;;;7377760;19;20126;-76
2022/11/05 05:39:28;;;;;;;1.43;1.33;;;11.90;99.90;;;;;;7384273;19;20221;-77
2022/11/05 05:41:54;;;;;;;2.23;2.00;;;11.90;99.90;;;;;;7382559;19;20131;-77
2022/11/05 05:44:20;;;;;;;3.17;2.47;;;11.90;99.90;;;;;;7385511;19;20131;-76
2022/11/05 05:46:45;;;;;;;3.53;3.17;;;12.00;99.90;;;;;;7384064;19;20126;-76
2022/11/05 05:49:12;;;;;;;4.60;3.00;;;11.90;99.90;;;;;;7381799;19;20575;-75
2022/11/05 05:51:38;;;;;;;3.80;3.17;;;11.80;99.90;;;;;;7380526;19;20150;-75
2022/11/05 05:54:05;;;;;;;4.50;3.73;;;11.80;99.90;;;;;;7381272;19;20135;-75
2022/11/05 05:56:31;;;;;;;6.53;3.70;;;11.80;99.90;;;;;;7384260;19;20149;-76
2022/11/05 05:58:57;;;;;;;6.00;3.53;;;11.80;99.90;;;;;;7389515;19;20130;-76
2022/11/05 06:01:22;;;;;;;4.87;3.77;;;11.90;99.90;;;;;;7388026;19;20524;-76
2022/11/05 06:03:49;;;;;;;6.43;4.70;;;11.80;99.90;;;;;;7388382;19;20151;-76
2022/11/05 06:06:19;;;;;;;5.50;4.43;;;11.90;99.90;;;;;;7391141;19;20595;-75
2022/11/05 06:08:47;;;;;;;7.47;5.13;;;11.90;99.90;;;;;;7388952;19;20904;-77
2022/11/05 06:11:13;;;;;;;8.50;5.27;;;11.90;99.90;;;;;;7388231;19;20600;-76
2022/11/05 06:13:38;;;;;;;6.47;5.37;;;12.00;99.90;;;;;;7389341;19;20155;-78
2022/11/05 06:16:07;;;;;;;9.97;6.00;;;12.00;99.90;;;;;;7390651;19;20525;-75
2022/11/05 06:18:36;;;;;;;8.53;6.00;;;11.70;99.90;;;;;;7388237;19;20162;-76
2022/11/05 06:21:13;;;;;;;9.00;6.43;;;11.70;99.90;;;;;;7387560;19;20695;-76
2022/11/05 06:23:44;;;;;;;7.63;6.07;;;11.80;99.90;;;;;;7385893;19;20691;-77
2022/11/05 06:26:12;;;;;;;8.67;6.80;;;11.90;99.90;;;;;;7387420;19;20149;-74
2022/11/05 06:28:38;;;;;;;8.87;7.00;;;11.80;99.90;;;;;;7389481;19;20151;-76
2022/11/05 06:31:04;;;;;;;12.00;7.67;;;11.80;99.90;;;;;;7387890;19;20186;-77
2022/11/05 06:33:30;;;;;;;8.70;6.90;;;11.90;99.90;;;;;;7389610;19;20631;-76
2022/11/05 06:36:01;;;;;;;9.93;7.60;;;12.00;99.90;;;;;;7385981;19;20311;-75
2022/11/05 06:38:28;;;;;;;10.03;7.63;;;11.90;99.90;;;;;;7387824;19;20126;-75
2022/11/05 06:40:56;;;;;;;12.50;8.00;;;11.90;99.90;;;;;;7387482;19;20146;-75
2022/11/05 06:43:22;;;;;;;11.20;7.80;;;11.70;99.90;;;;;;7387326;19;20150;-75
2022/11/05 06:45:48;;;;;;;10.37;8.27;;;11.80;99.90;;;;;;7385819;19;20222;-76
2022/11/05 06:48:13;;;;;;;11.17;8.93;;;11.80;99.90;;;;;;7385312;19;20218;-75
2022/11/05 06:50:43;;;;;;;10.27;7.87;;;12.00;99.90;;;;;;7386495;19;20150;-76
2022/11/05 06:53:09;;;;;;;12.27;7.87;;;11.80;99.90;;;;;;7388059;19;20161;-75
2022/11/05 06:55:35;;;;;;;17.60;14.13;;;11.80;99.90;;;;;;7389654;19;20147;-75
2022/11/05 06:58:00;;;;;;;17.67;13.47;;;11.70;99.90;;;;;;7389057;19;20135;-77
2022/11/05 07:00:26;;;;;;;9.97;8.37;;;11.70;99.90;;;;;;7383019;19;20123;-75
2022/11/05 07:02:54;;;;;;;10.63;8.20;;;11.80;99.90;;;;;;7385577;19;20212;-75
2022/11/05 07:05:21;;;;;;;10.67;8.53;;;11.70;99.90;;;;;;7385705;19;20487;-74
2022/11/05 07:07:47;;;;;;;12.97;9.40;;;11.70;99.90;;;;;;7383248;19;20150;-76
2022/11/05 07:10:15;;;;;;;11.97;8.80;;;11.80;99.90;;;;;;7384812;19;20147;-75
2022/11/05 07:12:41;;;;;;;12.50;8.73;;;11.80;99.90;;;;;;7385014;19;20142;-76
2022/11/05 07:15:08;;;;;;;11.77;8.57;;;11.90;99.90;;;;;;7385127;19;20158;-75
2022/11/05 07:17:34;;;;;;;12.43;9.20;;;11.90;99.90;;;;;;7388629;19;20546;-75
2022/11/05 07:19:59;;;;;;;11.73;8.53;;;11.90;99.90;;;;;;7394920;19;20151;-75
2022/11/05 07:22:28;;;;;;;12.17;8.70;;;11.90;99.90;;;;;;7397354;19;20599;-75
2022/11/05 07:24:54;;;;;;;13.30;9.17;;;11.90;99.90;;;;;;7394381;19;20126;-75
2022/11/05 07:27:19;;;;;;;13.40;8.50;;;11.70;99.90;;;;;;7394015;19;20154;-75
2022/11/05 07:29:45;;;;;;;14.97;8.90;;;11.70;99.90;;;;;;7395089;19;20151;-76
2022/11/05 07:32:11;;;;;;;11.57;8.47;;;11.80;99.90;;;;;;7396105;19;20172;-76
2022/11/05 07:34:36;;;;;;;11.53;7.87;;;11.80;99.90;;;;;;7392798;19;20159;-75
2022/11/05 07:37:02;;;;;;;10.83;7.90;;;11.60;99.90;;;;;;7395483;19;20157;-75
2022/11/05 07:39:28;;;;;;;13.47;8.20;;;11.60;99.90;;;;;;7394354;19;20251;-76
2022/11/05 07:41:54;;;;;;;11.90;7.83;;;11.70;99.90;;;;;;7395132;19;20139;-75
2022/11/05 07:44:20;;;;;;;12.03;7.80;;;11.80;99.90;;;;;;7395224;19;20497;-76
2022/11/05 07:46:46;;;;;;;13.27;7.93;;;11.90;99.90;;;;;;7394269;19;20210;-75
2022/11/05 07:49:14;;;;;;;12.97;8.73;;;11.80;99.90;;;;;;7395530;19;20242;-75
2022/11/05 07:51:40;;;;;;;9.47;7.83;;;11.80;99.90;;;;;;7394402;19;20170;-75
2022/11/05 07:54:05;;;;;;;12.20;8.77;;;11.80;99.90;;;;;;7394766;19;20209;-75
2022/11/05 07:56:31;;;;;;;12.27;7.83;;;11.80;99.90;;;;;;7396145;19;20162;-74
2022/11/05 07:58:57;;;;;;;11.50;7.87;;;11.90;99.90;;;;;;7395598;19;20690;-73
2022/11/05 08:01:23;;;;;;;11.43;7.63;;;11.80;99.90;;;;;;7393322;19;20142;-75
2022/11/05 08:03:49;;;;;;;11.83;8.60;;;11.70;99.90;;;;;;7395367;19;20163;-74
2022/11/05 08:06:15;;;;;;;12.90;8.33;;;11.60;99.90;;;;;;7394343;19;20122;-75
2022/11/05 08:08:40;;;;;;;12.33;8.27;;;11.60;99.90;;;;;;7394548;19;20130;-74
2022/11/05 08:11:08;;;;;;;11.03;7.10;;;11.70;99.90;;;;;;7395840;19;20494;-75
2022/11/05 08:13:35;;;;;;;9.53;7.73;;;11.60;99.90;;;;;;7396196;19;20131;-73
2022/11/05 08:16:02;;;;;;;8.97;6.73;;;11.50;99.90;;;;;;7392301;19;20135;-74
2022/11/05 08:18:31;;;;;;;10.33;7.07;;;11.30;99.90;;;;;;7394760;19;20163;-73
2022/11/05 08:20:59;;;;;;;9.77;6.50;;;11.40;99.90;;;;;;7394411;19;20138;-74
2022/11/05 08:23:29;;;;;;;9.17;6.50;;;11.70;99.90;;;;;;7396552;19;20143;-76
2022/11/05 08:25:55;;;;;;;5.83;4.57;;;11.50;99.90;;;;;;7394125;19;20135;-75
2022/11/05 08:28:23;;;;;;;6.37;4.50;;;11.50;99.90;;;;;;7396074;19;20251;-74
2022/11/05 08:30:50;;;;;;;5.23;4.23;;;11.50;99.90;;;;;;7394531;19;20159;-74
2022/11/05 08:33:16;;;;;;;5.33;4.00;;;11.20;99.90;;;;;;7397457;19;20134;-75
2022/11/05 08:35:42;;;;;;;5.53;3.80;;;11.40;99.90;;;;;;7399483;19;20151;-74
2022/11/05 08:38:12;;;;;;;4.07;3.23;;;11.30;99.90;;;;;;7398799;19;20145;-73
2022/11/05 08:40:39;;;;;;;5.50;3.50;;;11.30;99.90;;;;;;7398221;19;20147;-74
2022/11/05 08:43:06;;;;;;;5.50;3.50;;;11.30;99.90;;;;;;7394614;19;20150;-73
2022/11/05 08:45:34;;;;;;;4.33;3.10;;;11.30;99.90;;;;;;7398898;19;20222;-73
2022/11/05 08:48:02;;;;;;;3.50;2.37;;;11.20;99.90;;;;;;7399959;19;20145;-74
2022/11/05 08:50:28;;;;;;;4.43;3.10;;;11.30;99.90;;;;;;7399818;19;20134;-75
2022/11/05 08:52:54;;;;;;;5.77;3.70;;;11.30;99.90;;;;;;7396609;19;20150;-74
2022/11/05 08:55:19;;;;;;;3.17;2.70;;;11.40;99.90;;;;;;7395753;19;20130;-74
2022/11/05 08:57:45;;;;;;;3.33;2.70;;;11.30;99.90;;;;;;7393753;19;20137;-76
2022/11/05 09:00:15;;;;;;;3.10;2.13;;;11.40;99.90;;;;;;7396176;19;20141;-77
2022/11/05 09:02:41;;;;;;;3.23;2.63;;;11.40;99.90;;;;;;7396416;19;20157;-76
2022/11/05 09:05:07;;;;;;;3.50;2.17;;;11.30;99.90;;;;;;7394212;19;20134;-75
2022/11/05 09:07:33;;;;;;;3.13;2.20;;;11.40;99.90;;;;;;7386835;19;20127;-77
2022/11/05 09:09:58;;;;;;;2.37;2.10;;;11.50;99.90;;;;;;7383387;19;20218;-76
2022/11/05 09:12:24;;;;;;;2.97;2.57;;;11.50;99.90;;;;;;7389329;19;20194;-76
2022/11/05 09:14:50;;;;;;;3.40;2.60;;;11.60;99.90;;;;;;7388248;19;20164;-77
2022/11/05 09:17:20;;;;;;;2.97;2.20;;;11.60;99.90;;;;;;7383488;19;20655;-75
2022/11/05 09:19:47;;;;;;;2.97;2.37;;;11.70;99.90;;;;;;7392308;19;20138;-75
2022/11/05 09:22:12;;;;;;;3.90;2.57;;;11.60;99.90;;;;;;7389048;19;20159;-77
2022/11/05 09:24:39;;;;;;;4.80;3.23;;;11.60;99.90;;;;;;7394613;19;20247;-76
2022/11/05 09:27:09;;;;;;;3.63;2.97;;;11.40;99.90;;;;;;7390889;19;20147;-77
2022/11/05 09:29:35;;;;;;;3.80;3.07;;;11.60;99.90;;;;;;7391699;19;20262;-75
2022/11/05 09:32:01;;;;;;;4.90;3.07;;;11.40;99.90;;;;;;7388862;19;20135;-76
2022/11/05 09:34:26;;;;;;;4.33;3.23;;;11.40;99.90;;;;;;7392020;19;20210;-76
2022/11/05 09:36:52;;;;;;;3.93;3.20;;;11.50;99.90;;;;;;7395390;19;20131;-76
2022/11/05 09:39:18;;;;;;;5.33;3.43;;;11.50;99.90;;;;;;7394004;19;20135;-76
2022/11/05 09:41:45;;;;;;;6.53;3.40;;;11.10;99.90;;;;;;7391329;19;20143;-76
2022/11/05 09:44:17;;;;;;;5.57;3.33;;;11.10;99.90;;;;;;7391980;19;20142;-75
2022/11/05 09:46:51;;;;;;;5.57;4.00;;;11.20;99.90;;;;;;7390603;19;20141;-76
2022/11/05 09:49:29;;;;;;;7.57;4.80;;;11.30;99.90;;;;;;7388748;19;20148;-78
2022/11/05 09:51:57;;;;;;;7.47;5.17;;;11.40;99.90;;;;;;7392314;19;20146;-79
2022/11/05 09:54:27;;;;;;;6.93;4.80;;;11.40;99.90;;;;;;7391622;19;20467;-81
2022/11/05 09:56:54;;;;;;;9.33;5.10;;;11.40;99.90;;;;;;7394705;19;20147;-77
2022/11/05 09:59:40;;;;;;;6.77;5.13;;;11.20;99.90;;;;;;7391789;19;20135;-74
2022/11/05 10:02:33;;;;;;;6.93;5.10;;;11.40;99.90;;;;;;7391675;19;20134;-79
2022/11/05 10:05:05;;;;;;;8.83;5.87;;;11.50;99.90;;;;;;7391471;19;20586;-77
2022/11/05 10:07:45;;;;;;;9.63;5.40;;;11.60;99.90;;;;;;7387513;19;20147;-76
2022/11/05 10:10:49;;;;;;;8.83;6.57;;;11.70;99.90;;;;;;7388457;19;20200;-77
2022/11/05 10:13:33;;;;;;;11.03;6.40;;;11.60;99.90;;;;;;7395635;19;20483;-76
2022/11/05 10:16:28;;;;;;;13.30;6.03;;;11.50;99.90;;;;;;7391864;19;20145;-73
2022/11/05 10:18:58;;;;;;;10.07;6.30;;;11.70;99.90;;;;;;7387023;19;20490;-76
2022/11/05 10:21:24;;;;;;;10.37;6.40;;;11.80;99.90;;;;;;7390584;19;20145;-76
2022/11/05 10:23:50;;;;;;;8.53;6.00;;;11.90;99.90;;;;;;7387667;19;20150;-74
2022/11/05 10:26:21;;;;;;;8.80;5.70;;;11.90;99.90;;;;;;7387218;19;20141;-76
2022/11/05 10:28:48;;;;;;;11.60;5.83;;;11.90;99.90;;;;;;7389472;19;20559;-74
2022/11/05 10:31:19;;;;;;;7.93;5.97;;;11.90;99.90;;;;;;7389075;19;20139;-75
2022/11/05 10:33:45;;;;;;;6.27;5.20;;;11.80;99.90;;;;;;7391621;19;20699;-75
2022/11/05 10:36:35;;;;;;;8.47;5.93;;;11.80;99.90;;;;;;7389537;19;20175;-76
2022/11/05 10:39:13;;;;;;;11.80;6.07;;;11.70;99.90;;;;;;7389649;19;20146;-76
2022/11/05 10:41:48;;;;;;;9.37;6.20;;;11.80;99.90;;;;;;7389659;19;20147;-76
2022/11/05 10:44:29;;;;;;;11.77;5.70;;;11.70;99.90;;;;;;7397456;19;20162;-76
2022/11/05 10:47:00;;;;;;;9.10;5.83;;;11.60;99.90;;;;;;7395130;19;20150;-75
2022/11/05 10:49:31;;;;;;;9.20;7.03;;;11.70;99.90;;;;;;7397622;19;20146;-75
2022/11/05 10:52:17;;;;;;;9.13;5.40;;;11.60;99.90;;;;;;7395155;19;20143;-75
2022/11/05 10:54:43;;;;;;;9.90;5.27;;;11.80;99.90;;;;;;7394841;19;20214;-75
2022/11/05 10:57:32;;;;;;;8.37;4.93;;;11.60;99.90;;;;;;7395635;19;20588;-76
2022/11/05 11:00:14;;;;;;;6.90;4.57;;;11.90;99.90;;;;;;7395483;19;20139;-75
2022/11/05 11:02:52;;;;;;;11.47;5.43;;;11.90;99.90;;;;;;7397648;19;20170;-75
2022/11/05 11:05:20;;;;;;;11.20;4.90;;;11.90;99.90;;;;;;7396155;19;20510;-75
2022/11/05 11:07:59;;;;;;;9.40;4.70;;;11.90;99.90;;;;;;7396115;19;20146;-76
2022/11/05 11:10:26;;;;;;;6.73;4.77;;;11.90;99.90;;;;;;7394569;19;20163;-75
2022/11/05 11:12:53;;;;;;;8.17;5.27;;;11.90;99.90;;;;;;7396131;19;20139;-76
2022/11/05 11:15:19;;;;;;;6.93;5.10;;;11.70;99.90;;;;;;7395761;19;20155;-75
2022/11/05 11:17:45;;;;;;;9.97;5.77;;;11.90;99.90;;;;;;7393832;19;20135;-75
2022/11/05 11:20:29;;;;;;;7.80;5.23;;;12.20;99.90;;;;;;7396652;19;20138;-76
2022/11/05 11:22:59;;;;;;;6.23;4.30;;;12.30;99.90;;;;;;7395694;19;20145;-76
2022/11/05 11:25:47;;;;;;;6.07;4.40;;;12.20;99.90;;;;;;7390779;19;20521;-78
2022/11/05 11:28:20;;;;;;;8.23;4.80;;;12.20;99.90;;;;;;7396775;19;20202;-77
2022/11/05 11:30:48;;;;;;;7.23;4.83;;;12.20;99.90;;;;;;7394047;19;20261;-77
2022/11/05 11:33:20;;;;;;;7.00;4.03;;;12.20;99.90;;;;;;7395852;19;20137;-76
2022/11/05 11:35:46;;;;;;;8.60;5.00;;;12.20;99.90;;;;;;7391217;19;20162;-77
2022/11/05 11:38:16;;;;;;;7.03;4.20;;;12.20;99.90;;;;;;7393722;19;20141;-76
2022/11/05 11:40:44;;;;;;;9.13;4.37;;;12.20;99.90;;;;;;7391898;19;20158;-75
2022/11/05 11:43:39;;;;;;;5.67;4.07;;;12.40;99.90;;;;;;7392586;19;20171;-76
2022/11/05 11:46:17;;;;;;;7.90;5.00;;;12.30;99.90;;;;;;7393577;19;20381;-76
2022/11/05 11:48:46;;;;;;;6.47;4.63;;;12.30;99.90;;;;;;7393714;19;20139;-75
2022/11/05 11:51:40;;;;;;;6.17;3.93;;;12.40;99.90;;;;;;7394510;19;20142;-75
2022/11/05 11:54:18;;;;;;;8.03;5.20;;;12.50;99.90;;;;;;7391909;19;20179;-76
2022/11/05 11:56:45;;;;;;;5.27;4.30;;;12.40;99.90;;;;;;7392222;19;20571;-74
2022/11/05 11:59:21;;;;;;;7.70;5.20;;;12.60;99.90;;;;;;7394231;19;20156;-75
2022/11/05 12:02:18;;;;;;;6.73;4.73;;;12.50;99.90;;;;;;7391007;19;20134;-75
2022/11/05 12:05:16;;;;;;;7.33;5.03;;;12.60;99.90;;;;;;7391213;19;20314;-75
2022/11/05 12:07:51;;;;;;;8.33;5.00;;;12.70;99.90;;;;;;7387009;19;20143;-77
2022/11/05 12:10:27;;;;;;;7.77;4.67;;;12.70;99.90;;;;;;7393358;19;20145;-74
2022/11/05 12:13:14;;;;;;;6.80;4.70;;;12.70;99.90;;;;;;7394108;19;20158;-76
2022/11/05 12:15:48;;;;;;;9.17;5.30;;;12.80;99.90;;;;;;7391271;19;20479;-75
2022/11/05 12:18:31;;;;;;;6.13;4.30;;;12.60;99.90;;;;;;7392133;19;20158;-74
2022/11/05 12:20:57;;;;;;;4.80;3.40;;;12.70;99.90;;;;;;7393242;19;20139;-75
2022/11/05 12:23:26;;;;;;;5.03;3.37;;;12.70;99.90;;;;;;7392824;19;20586;-73
2022/11/05 12:26:01;;;;;;;4.80;4.07;;;12.60;99.90;;;;;;7393319;19;20206;-74
2022/11/05 12:28:49;;;;;;;4.13;3.40;;;12.50;99.90;;;;;;7392171;19;20149;-75
2022/11/05 12:31:24;;;;;;;6.97;4.60;;;12.70;99.90;;;;;;7391318;19;20158;-76
2022/11/05 12:33:55;;;;;;;8.70;5.53;;;12.70;99.90;;;;;;7393102;19;20138;-75
2022/11/05 12:36:56;;;;;;;6.47;4.23;;;12.70;99.90;;;;;;7391959;19;20138;-76
2022/11/05 12:39:27;;;;;;;5.90;4.20;;;12.70;99.90;;;;;;7392691;19;20553;-76
2022/11/05 12:42:05;;;;;;;6.03;4.10;;;12.60;99.90;;;;;;7390452;19;20587;-77
2022/11/05 12:44:39;;;;;;;5.68;4.30;;;12.60;99.90;;;;;;7389380;19;20400;-76
2022/11/05 12:47:30;;;;;;;6.63;5.20;;;12.70;99.90;;;;;;7391801;19;20170;-75
2022/11/05 12:50:34;;;;;;;7.87;3.87;;;12.80;99.90;;;;;;7393133;19;20226;-76
2022/11/05 12:53:21;;;;;;;5.80;3.60;;;12.70;99.90;;;;;;7393465;19;20557;-75
2022/11/05 12:55:49;;;;;;;4.67;3.70;;;12.50;99.90;;;;;;7393553;19;20162;-77
2022/11/05 12:58:24;;;;;;;3.80;3.37;;;12.30;99.90;;;;;;7395184;19;20492;-75
2022/11/05 13:01:07;;;;;;;4.23;3.57;;;12.30;99.90;;;;;;7396072;19;20183;-77
2022/11/05 13:03:53;;;;;;;4.82;3.50;;;12.40;99.90;;;;;;7399513;19;20154;-77
2022/11/05 13:06:55;;;;;;;24.15;16.60;;;12.50;99.90;;;;;;7398783;19;20143;-77
2022/11/05 13:09:24;;;;;;;10.53;7.20;;;12.70;99.90;;;;;;7395209;19;20218;-77
2022/11/05 13:11:58;;;;;;;6.20;4.10;;;12.80;99.90;;;;;;7398557;19;20134;-75
2022/11/05 13:15:19;;;;;;;6.93;4.60;;;12.90;99.90;;;;;;7393959;19;20146;-75
2022/11/05 13:17:52;;;;;;;6.37;4.57;;;12.90;99.90;;;;;;7388299;19;20143;-75
2022/11/05 13:20:25;;;;;;;5.77;3.77;;;12.90;99.90;;;;;;7389101;19;20142;-75
2022/11/05 13:23:15;;;;;;;5.40;3.73;;;12.80;99.90;;;;;;7390556;19;20179;-77
2022/11/05 13:25:48;;;;;;;5.93;4.33;;;12.90;99.90;;;;;;7392710;19;20460;-77
2022/11/05 13:28:25;;;;;;;6.77;4.27;;;13.00;99.90;;;;;;7392602;19;20142;-75
2022/11/05 13:30:58;;;;;;;5.17;3.90;;;12.90;99.90;;;;;;7389547;19;20494;-76
2022/11/05 13:33:41;;;;;;;6.73;4.30;;;12.80;99.90;;;;;;7391752;19;20146;-76
2022/11/05 13:39:23;;;;;;;5.20;3.50;;;12.90;99.90;;;;;;7390837;19;20521;-75
2022/11/05 13:42:07;;;;;;;5.07;3.50;;;12.80;99.90;;;;;;7391915;19;20504;-76
2022/11/05 13:44:46;;;;;;;5.00;3.70;;;12.80;99.90;;;;;;7391976;19;20472;-75
2022/11/05 13:47:27;;;;;;;5.53;4.35;;;12.70;99.90;;;;;;7388701;19;20122;-76
2022/11/05 13:50:30;;;;;;;4.13;3.50;;;12.40;99.90;;;;;;7389986;19;20138;-75
2022/11/05 13:53:33;;;;;;;5.18;3.20;;;12.60;99.90;;;;;;7392241;19;20141;-76